Terminal Aerodrome Forecast
Issued by NWS

Home | Current Version | Previous Version | Text Only | Print | Product List | Glossary On
Versions: 1 2 3 4 5 6 7 8 9 10 11 12 13 14 15 16
122
FTUS46 KMTR 221700
TAFOAK
TAF
KOAK 221720Z 2218/2324 26009KT P6SM SCT020 BKN040
     FM222100 27013KT P6SM SCT025 BKN050
     FM230300 27015KT P6SM BKN020
     FM230600 26010KT P6SM OVC015
     FM231000 26008KT P6SM OVC010=

USA.gov is the U.S. government's official web portal to all federal, state and local government web resources and services.